This is the latest recevied weather packets stored in our database for station/object DC1MAK-13. If no packets are shown the sender has not sent any weather packets the latest 1 day(s).
| Time | Temp. | Humidity | Pressure | Rain* | Wind** | Luminosity | Snow |
|---|---|---|---|---|---|---|---|
| 1778082891 | 12.22° C | 10% | - | - | - | - | - |
| 1778081373 | 12.78° C | 88% | 977.3 hPa | - | - | - | - |
| 1778080462 | 13.33° C | 81% | 977.1 hPa | - | - | - | - |
| 1778078944 | 15.56° C | 62% | 976.6 hPa | - | - | - | - |
| 1778078339 | 16.11° C | 61% | 976.4 hPa | - | - | - | - |
| 1778078039 | 17.22° C | 55% | 976.3 hPa | - | - | - | - |
| 1778077426 | 17.78° C | 53% | 976.4 hPa | - | - | - | - |
| 1778075908 | 17.78° C | 51% | 976.2 hPa | - | - | - | - |
| 1778074999 | 18.33° C | 52% | 976.3 hPa | - | - | - | - |
| 1778074699 | 18.33° C | 51% | 976.4 hPa | - | - | - | - |
| 1778074390 | 18.33° C | 49% | 976.4 hPa | - | - | - | - |
| 1778072872 | 18.89° C | 48% | 976.3 hPa | - | - | - | - |
| 1778072265 | 18.89° C | 48% | 976.4 hPa | - | - | - | - |
| 1778071659 | 18.89° C | 47% | 976.4 hPa | - | - | - | - |
| 1778070747 | 19.44° C | 48% | 976.4 hPa | - | - | - | - |
| 1778070443 | 18.89° C | 48% | 976.4 hPa | - | - | - | - |
| 1778069839 | 19.44° C | 48% | 976.4 hPa | - | - | - | - |
| 1778068319 | 17.22° C | 56% | 976.5 hPa | - | - | - | - |
| 1778068019 | 17.78° C | 57% | 976.5 hPa | - | - | - | - |
| 1778065889 | 17.78° C | 60% | 976.5 hPa | - | - | - | - |
| 1778064979 | 17.22° C | 63% | 976.6 hPa | - | - | - | - |
| 1778064679 | 17.22° C | 63% | 976.7 hPa | - | - | - | - |
| 1778064371 | 17.22° C | 63% | 976.8 hPa | - | - | - | - |
| 1778063764 | 16.67° C | 65% | 976.9 hPa | - | - | - | - |
| 1778063159 | 17.22° C | 64% | 977 hPa | - | - | - | - |
* Rain since midnight (hover to see other rain measurements)
** Current wind speed in m/s (hover to see current wind gust speed)